createdAt,value
2018-06-08T00:01:16.101Z,7.90
2018-06-08T00:03:43.446Z,9.80
2018-06-08T00:06:10.841Z,9.30
2018-06-08T00:08:38.174Z,8.03
2018-06-08T00:11:05.629Z,9.40
2018-06-08T00:13:32.960Z,8.43
2018-06-08T00:16:00.278Z,9.13
2018-06-08T00:18:27.625Z,11.53
2018-06-08T00:20:54.957Z,8.80
2018-06-08T00:23:22.298Z,9.93
2018-06-08T00:25:49.636Z,8.87
2018-06-08T00:28:16.964Z,8.87
2018-06-08T00:30:44.315Z,10.27
2018-06-08T00:33:11.676Z,8.80
2018-06-08T00:35:39.025Z,9.50
2018-06-08T00:38:06.373Z,8.77
2018-06-08T00:40:33.720Z,8.70
2018-06-08T00:43:01.048Z,13.20
2018-06-08T00:45:28.364Z,9.83
2018-06-08T00:47:55.845Z,8.67
2018-06-08T00:50:23.173Z,8.97
2018-06-08T00:52:50.510Z,10.67
2018-06-08T00:55:17.845Z,8.73
2018-06-08T00:57:45.200Z,9.60
2018-06-08T01:00:12.545Z,12.67
2018-06-08T01:02:39.910Z,11.70
2018-06-08T01:05:07.205Z,10.23
2018-06-08T01:07:34.554Z,8.50
2018-06-08T01:10:02.406Z,8.87
2018-06-08T01:12:29.790Z,13.80
2018-06-08T01:14:57.114Z,10.40
2018-06-08T01:17:24.470Z,9.50
2018-06-08T01:19:51.934Z,11.50
2018-06-08T01:22:19.268Z,10.77
2018-06-08T01:24:46.557Z,11.73
2018-06-08T01:27:13.893Z,9.53
2018-06-08T01:29:41.274Z,9.77
2018-06-08T01:32:08.613Z,8.50
2018-06-08T01:34:35.961Z,10.07
2018-06-08T01:37:03.379Z,10.20
2018-06-08T01:39:30.711Z,10.20
2018-06-08T01:41:58.038Z,10.90
2018-06-08T01:44:25.361Z,9.40
2018-06-08T01:46:52.849Z,11.03
2018-06-08T01:49:20.182Z,10.40
2018-06-08T01:51:47.522Z,9.40
2018-06-08T01:54:14.881Z,11.13
2018-06-08T01:56:42.238Z,9.97
2018-06-08T01:59:09.612Z,10.13
2018-06-08T02:01:36.957Z,11.80
2018-06-08T02:04:04.309Z,10.63
2018-06-08T02:06:31.711Z,18.87
2018-06-08T02:08:59.059Z,10.20
2018-06-08T02:11:26.418Z,11.40
2018-06-08T02:13:53.762Z,8.83
2018-06-08T02:16:21.223Z,11.00
2018-06-08T02:18:48.701Z,10.87
2018-06-08T02:21:16.039Z,11.50
2018-06-08T02:23:43.417Z,10.70
2018-06-08T02:26:10.746Z,10.20
2018-06-08T02:28:38.118Z,9.10
2018-06-08T02:31:05.449Z,10.33
2018-06-08T02:33:32.808Z,11.73
2018-06-08T02:36:00.163Z,11.40
2018-06-08T02:38:27.522Z,15.00
2018-06-08T02:40:54.857Z,10.43
2018-06-08T02:43:22.218Z,11.67
2018-06-08T02:45:49.578Z,10.40
2018-06-08T02:48:16.930Z,11.60
2018-06-08T02:50:44.274Z,12.10
2018-06-08T02:53:11.613Z,10.80
2018-06-08T02:55:38.981Z,10.13
2018-06-08T02:58:06.306Z,11.03
2018-06-08T03:00:33.670Z,12.30
2018-06-08T03:03:01.012Z,10.67
2018-06-08T03:05:28.379Z,13.40
2018-06-08T03:07:55.741Z,10.97
2018-06-08T03:10:23.121Z,11.80
2018-06-08T03:12:50.573Z,11.97
2018-06-08T03:15:17.917Z,13.10
2018-06-08T03:17:45.257Z,11.23
2018-06-08T03:20:12.567Z,13.07
2018-06-08T03:22:39.922Z,12.33
2018-06-08T03:25:07.657Z,12.17
2018-06-08T03:27:34.969Z,12.73
2018-06-08T03:30:02.373Z,11.60
2018-06-08T03:32:29.721Z,11.27
2018-06-08T03:34:57.067Z,16.50
2018-06-08T03:37:24.402Z,10.20
2018-06-08T03:39:51.793Z,11.27
2018-06-08T03:42:19.178Z,15.23
2018-06-08T03:44:46.638Z,13.70
2018-06-08T03:47:14.289Z,17.13
2018-06-08T03:49:41.645Z,24.40
2018-06-08T03:52:08.985Z,38.80
2018-06-08T03:54:36.375Z,39.60
2018-06-08T03:57:03.723Z,35.87
2018-06-08T03:59:31.073Z,31.10
2018-06-08T04:01:59.074Z,20.73
2018-06-08T04:04:26.433Z,18.83
2018-06-08T04:06:53.809Z,17.70
2018-06-08T04:09:21.274Z,15.33
2018-06-08T04:11:48.637Z,14.53
2018-06-08T04:14:15.973Z,14.53
2018-06-08T04:16:43.324Z,17.83
2018-06-08T04:19:10.677Z,14.73
2018-06-08T04:21:38.043Z,15.40
2018-06-08T04:24:05.394Z,15.00
2018-06-08T04:26:32.757Z,15.70
2018-06-08T04:29:00.175Z,15.70
2018-06-08T04:31:27.538Z,18.27
2018-06-08T04:33:54.866Z,14.90
2018-06-08T04:36:22.265Z,15.97
2018-06-08T04:38:49.609Z,17.83
2018-06-08T04:41:17.013Z,25.17
2018-06-08T04:43:44.358Z,22.70
2018-06-08T04:46:11.765Z,24.83
2018-06-08T04:48:39.118Z,24.27
2018-06-08T04:51:06.533Z,19.20
2018-06-08T04:53:33.869Z,20.73
2018-06-08T04:56:01.746Z,17.83
2018-06-08T04:58:29.073Z,17.27
2018-06-08T05:00:56.415Z,22.97
2018-06-08T05:03:23.793Z,20.00
2018-06-08T05:05:51.187Z,19.30
2018-06-08T05:08:18.657Z,20.70
2018-06-08T05:10:46.000Z,16.00
2018-06-08T05:13:13.371Z,17.57
2018-06-08T05:15:40.780Z,20.50
2018-06-08T05:18:08.143Z,23.83
2018-06-08T05:20:35.503Z,19.37
2018-06-08T05:23:02.857Z,23.27
2018-06-08T05:25:30.195Z,23.43
2018-06-08T05:27:57.560Z,19.10
2018-06-08T05:30:26.019Z,20.23
2018-06-08T05:32:53.385Z,22.47
2018-06-08T05:35:21.138Z,23.60
2018-06-08T05:37:48.507Z,21.37
2018-06-08T05:40:15.867Z,17.70
2018-06-08T05:42:43.334Z,18.30
2018-06-08T05:45:10.678Z,18.80
2018-06-08T05:47:38.045Z,18.00
2018-06-08T05:50:05.426Z,14.17
2018-06-08T05:52:32.781Z,18.07
2018-06-08T05:55:00.154Z,13.90
2018-06-08T05:57:27.514Z,17.33
2018-06-08T05:59:54.881Z,16.23
2018-06-08T06:02:22.238Z,13.37
2018-06-08T06:04:49.596Z,15.37
2018-06-08T06:07:16.953Z,19.10
2018-06-08T06:09:44.414Z,15.37
2018-06-08T06:12:11.749Z,15.90
2018-06-08T06:14:39.132Z,13.50
2018-06-08T06:17:06.478Z,17.80
2018-06-08T06:19:33.817Z,15.47
2018-06-08T06:22:01.169Z,11.70
2018-06-08T06:24:28.517Z,9.20
2018-06-08T06:26:55.865Z,9.80
2018-06-08T06:29:23.249Z,10.67
2018-06-08T06:31:50.634Z,9.70
2018-06-08T06:34:18.009Z,11.60
2018-06-08T06:36:45.358Z,8.90
2018-06-08T06:39:13.126Z,8.30
2018-06-08T06:41:40.521Z,13.57
2018-06-08T06:44:07.847Z,10.47
2018-06-08T06:46:35.190Z,9.03
2018-06-08T06:49:02.569Z,9.77
2018-06-08T06:51:30.074Z,8.17
2018-06-08T06:53:57.429Z,14.77
2018-06-08T06:56:24.742Z,13.53
2018-06-08T06:58:52.260Z,10.50
2018-06-08T07:01:19.636Z,8.47
2018-06-08T07:03:46.985Z,7.13
2018-06-08T07:06:14.342Z,8.47
2018-06-08T07:08:41.733Z,13.77
2018-06-08T07:11:09.189Z,8.13
2018-06-08T07:13:36.521Z,7.10
2018-06-08T07:16:03.888Z,7.53
2018-06-08T07:18:31.245Z,9.00
2018-06-08T07:20:58.626Z,7.50
2018-06-08T07:23:25.957Z,6.60
2018-06-08T07:25:53.309Z,7.57
2018-06-08T07:28:20.642Z,8.20
2018-06-08T07:30:48.001Z,11.07
2018-06-08T07:33:15.338Z,10.00
2018-06-08T07:35:42.686Z,8.20
2018-06-08T07:38:10.445Z,6.93
2018-06-08T07:40:37.779Z,6.10
2018-06-08T07:43:05.166Z,6.97
2018-06-08T07:45:32.646Z,6.10
2018-06-08T07:47:59.977Z,7.50
2018-06-08T07:50:27.305Z,7.73
2018-06-08T07:52:54.625Z,10.87
2018-06-08T07:55:21.954Z,8.07
2018-06-08T07:57:49.305Z,7.17
2018-06-08T08:00:16.641Z,7.63
2018-06-08T08:02:44.018Z,7.03
2018-06-08T08:05:11.450Z,10.67
2018-06-08T08:07:39.141Z,6.57
2018-06-08T08:10:06.501Z,8.77
2018-06-08T08:12:33.854Z,7.50
2018-06-08T08:15:01.199Z,9.20
2018-06-08T08:17:28.614Z,6.53
2018-06-08T08:19:56.076Z,5.70
2018-06-08T08:22:23.427Z,6.67
2018-06-08T08:24:50.853Z,8.87
2018-06-08T08:27:18.313Z,6.93
2018-06-08T08:29:45.667Z,11.37
2018-06-08T08:32:13.082Z,6.20
2018-06-08T08:34:40.461Z,9.70
2018-06-08T08:37:07.837Z,6.47
2018-06-08T08:39:35.169Z,7.23
2018-06-08T08:42:02.525Z,12.40
2018-06-08T08:44:29.866Z,6.70
2018-06-08T08:46:57.197Z,7.70
2018-06-08T08:49:24.522Z,7.53
2018-06-08T08:51:51.874Z,7.93
2018-06-08T08:54:19.554Z,7.33
2018-06-08T08:56:46.929Z,7.57
2018-06-08T08:59:14.231Z,8.77
2018-06-08T09:01:41.621Z,8.47
2018-06-08T09:04:08.953Z,8.33
2018-06-08T09:06:36.689Z,7.43
2018-06-08T09:09:05.826Z,8.90
2018-06-08T09:11:33.207Z,8.50
2018-06-08T09:14:00.522Z,8.27
2018-06-08T09:16:27.924Z,7.97
2018-06-08T09:18:55.329Z,7.87
2018-06-08T09:21:22.879Z,8.30
2018-06-08T09:23:50.400Z,7.57
2018-06-08T09:26:17.825Z,8.23
2018-06-08T09:28:45.149Z,8.67
2018-06-08T09:31:12.500Z,8.77
2018-06-08T09:33:39.893Z,8.90
2018-06-08T09:36:08.025Z,8.30
2018-06-08T09:38:35.401Z,8.60
2018-06-08T09:41:02.800Z,8.80
2018-06-08T09:43:30.206Z,9.77
2018-06-08T09:45:57.666Z,10.13
2018-06-08T09:48:25.108Z,9.00
2018-06-08T09:50:52.466Z,7.57
2018-06-08T09:53:19.801Z,9.77
2018-06-08T09:55:47.142Z,9.30
2018-06-08T09:58:14.478Z,9.47
2018-06-08T10:00:42.605Z,8.73
2018-06-08T10:03:10.057Z,8.27
2018-06-08T10:05:37.550Z,8.30
2018-06-08T10:08:05.410Z,9.00
2018-06-08T10:10:32.778Z,8.23
2018-06-08T10:13:00.121Z,9.07
2018-06-08T10:15:27.465Z,8.83
2018-06-08T10:17:54.830Z,8.23
2018-06-08T10:20:22.569Z,8.57
2018-06-08T10:22:49.918Z,9.00
2018-06-08T10:25:17.248Z,8.20
2018-06-08T10:27:44.594Z,8.33
2018-06-08T10:30:11.945Z,8.27
2018-06-08T10:32:39.317Z,8.03
2018-06-08T10:35:06.625Z,8.47
2018-06-08T10:37:33.977Z,10.70
2018-06-08T10:40:01.432Z,8.50
2018-06-08T10:42:28.754Z,8.20
2018-06-08T10:44:56.128Z,8.03
2018-06-08T10:47:23.549Z,7.50
2018-06-08T10:49:50.868Z,7.20
2018-06-08T10:52:18.550Z,8.10
2018-06-08T10:54:45.889Z,7.60
2018-06-08T10:57:13.821Z,7.50
2018-06-08T10:59:42.070Z,8.43
2018-06-08T11:02:09.553Z,8.70
2018-06-08T11:04:36.906Z,8.10
2018-06-08T11:07:04.553Z,7.77
2018-06-08T11:09:32.060Z,9.30
2018-06-08T11:11:59.408Z,8.90
2018-06-08T11:14:26.738Z,7.83
2018-06-08T11:16:54.376Z,7.30
2018-06-08T11:19:22.058Z,8.67
2018-06-08T11:21:49.429Z,7.63
2018-06-08T11:24:16.761Z,6.80
2018-06-08T11:26:44.142Z,7.73
2018-06-08T11:29:11.493Z,7.80
2018-06-08T11:31:38.873Z,8.27
2018-06-08T11:34:06.275Z,9.30
2018-06-08T11:36:33.617Z,8.40
2018-06-08T11:39:00.981Z,7.97
2018-06-08T11:41:28.351Z,7.83
2018-06-08T11:43:55.754Z,8.80
2018-06-08T11:46:23.194Z,8.00
2018-06-08T11:48:50.561Z,8.40
2018-06-08T11:51:17.921Z,8.23
2018-06-08T11:53:45.245Z,7.10
2018-06-08T11:56:12.590Z,7.40
2018-06-08T11:58:39.969Z,7.13
2018-06-08T12:01:07.325Z,7.37
2018-06-08T12:03:34.677Z,6.60
2018-06-08T12:06:02.018Z,7.70
2018-06-08T12:08:29.401Z,7.40
2018-06-08T12:10:56.758Z,7.60
2018-06-08T12:13:24.158Z,7.40
2018-06-08T12:15:51.513Z,7.67
2018-06-08T12:18:18.865Z,8.30
2018-06-08T12:20:46.430Z,7.63
2018-06-08T12:23:13.833Z,9.63
2018-06-08T12:25:41.226Z,7.80
2018-06-08T12:28:08.541Z,7.13
2018-06-08T12:30:35.920Z,7.80
2018-06-08T12:33:03.309Z,7.07
2018-06-08T12:35:30.649Z,7.67
2018-06-08T12:37:57.964Z,8.37
2018-06-08T12:40:25.337Z,9.33
2018-06-08T12:42:52.804Z,6.90
2018-06-08T12:45:20.200Z,7.10
2018-06-08T12:47:47.558Z,8.83
2018-06-08T12:50:14.933Z,7.20
2018-06-08T12:52:42.378Z,6.30
2018-06-08T12:55:10.045Z,7.20
2018-06-08T12:57:37.387Z,8.30
2018-06-08T13:00:04.846Z,8.37
2018-06-08T13:02:32.190Z,7.70
2018-06-08T13:04:59.550Z,6.80
2018-06-08T13:07:26.903Z,7.63
2018-06-08T13:09:54.478Z,6.27
2018-06-08T13:12:21.837Z,7.23
2018-06-08T13:14:49.202Z,6.53
2018-06-08T13:17:16.566Z,6.90
2018-06-08T13:19:43.933Z,6.57
2018-06-08T13:22:11.396Z,12.60
2018-06-08T13:24:38.745Z,6.27
2018-06-08T13:27:06.082Z,6.80
2018-06-08T13:29:33.533Z,6.90
2018-06-08T13:32:01.433Z,6.33
2018-06-08T13:34:29.625Z,5.97
2018-06-08T13:36:56.981Z,7.67
2018-06-08T13:39:24.322Z,6.33
2018-06-08T13:41:51.654Z,6.20
2018-06-08T13:44:18.977Z,6.90
2018-06-08T13:46:47.092Z,6.70
2018-06-08T13:49:14.480Z,6.00
2018-06-08T13:51:41.833Z,6.77
2018-06-08T13:54:09.250Z,9.20
2018-06-08T13:56:36.624Z,7.07
2018-06-08T13:59:04.215Z,6.17
2018-06-08T14:01:31.582Z,6.37
2018-06-08T14:03:58.946Z,7.50
2018-06-08T14:06:26.305Z,5.77
2018-06-08T14:08:53.657Z,6.07
2018-06-08T14:11:21.009Z,6.90
2018-06-08T14:13:48.358Z,6.03
2018-06-08T14:16:15.701Z,6.00
2018-06-08T14:18:43.065Z,5.10
2018-06-08T14:21:10.446Z,5.70
2018-06-08T14:23:37.786Z,5.50
2018-06-08T14:26:05.161Z,5.20
2018-06-08T14:28:32.596Z,5.53
2018-06-08T14:30:59.937Z,6.10
2018-06-08T14:33:27.337Z,5.83
2018-06-08T14:35:54.894Z,6.00
2018-06-08T14:38:22.324Z,6.20
2018-06-08T14:40:49.632Z,6.57
2018-06-08T14:43:17.046Z,6.60
2018-06-08T14:45:44.383Z,7.47
2018-06-08T14:48:11.715Z,7.03
2018-06-08T14:50:39.065Z,6.07
2018-06-08T14:53:06.403Z,6.70
2018-06-08T14:55:33.765Z,6.97
2018-06-08T14:58:01.134Z,6.80
2018-06-08T15:00:28.518Z,6.60
2018-06-08T15:02:55.878Z,5.83
2018-06-08T15:05:23.354Z,7.10
2018-06-08T15:07:50.762Z,7.17
2018-06-08T15:10:18.097Z,5.33
2018-06-08T15:12:45.454Z,6.20
2018-06-08T15:15:12.905Z,6.20
2018-06-08T15:17:40.591Z,6.93
2018-06-08T15:20:08.119Z,6.70
2018-06-08T15:22:36.035Z,6.57
2018-06-08T15:25:03.581Z,5.77
2018-06-08T15:27:31.182Z,5.27
2018-06-08T15:29:58.717Z,5.33
2018-06-08T15:32:26.170Z,6.17
2018-06-08T15:34:53.725Z,5.23
2018-06-08T15:37:21.353Z,5.57
2018-06-08T15:39:48.826Z,7.70
2018-06-08T15:42:16.757Z,4.80
2018-06-08T15:44:44.298Z,6.40
2018-06-08T15:47:11.773Z,4.83
2018-06-08T15:49:39.381Z,6.10
2018-06-08T15:52:06.791Z,8.00
2018-06-08T15:54:34.151Z,4.40
2018-06-08T15:57:01.730Z,6.03
2018-06-08T15:59:29.254Z,4.70
2018-06-08T16:01:56.820Z,7.80
2018-06-08T16:04:24.264Z,4.87
2018-06-08T16:06:51.857Z,6.17
2018-06-08T16:09:19.353Z,4.70
2018-06-08T16:11:46.877Z,4.60
2018-06-08T16:14:14.380Z,4.93
2018-06-08T16:16:42.330Z,4.43
2018-06-08T16:19:09.848Z,4.87
2018-06-08T16:21:37.468Z,4.30
2018-06-08T16:24:04.998Z,4.40
2018-06-08T16:26:32.469Z,6.20
2018-06-08T16:29:00.285Z,4.17
2018-06-08T16:31:27.830Z,5.03
2018-06-08T16:33:55.329Z,4.10
2018-06-08T16:36:22.878Z,4.00
2018-06-08T16:38:50.209Z,4.93
2018-06-08T16:41:17.546Z,5.87
2018-06-08T16:43:44.909Z,5.13
2018-06-08T16:46:12.269Z,6.50
2018-06-08T16:48:39.613Z,4.37
2018-06-08T16:51:06.976Z,4.73
2018-06-08T16:53:34.382Z,4.10
2018-06-08T16:56:01.829Z,5.83
2018-06-08T16:58:29.187Z,3.57
2018-06-08T17:00:56.538Z,4.10
2018-06-08T17:03:23.889Z,5.70
2018-06-08T17:05:51.250Z,5.43
2018-06-08T17:08:18.605Z,5.30
2018-06-08T17:10:45.957Z,3.90
2018-06-08T17:13:13.426Z,3.97
2018-06-08T17:15:40.809Z,4.70
2018-06-08T17:18:08.170Z,4.17
2018-06-08T17:20:35.561Z,5.70
2018-06-08T17:23:02.957Z,5.80
2018-06-08T17:25:30.318Z,5.40
2018-06-08T17:27:57.665Z,6.07
2018-06-08T17:30:25.508Z,4.20
2018-06-08T17:32:52.889Z,4.17
2018-06-08T17:35:20.245Z,4.00
2018-06-08T17:37:47.669Z,4.13
2018-06-08T17:40:15.133Z,5.97
2018-06-08T17:42:42.480Z,3.90
2018-06-08T17:45:09.845Z,4.30
2018-06-08T17:47:37.261Z,3.53
2018-06-08T17:50:04.657Z,4.20
2018-06-08T17:52:32.014Z,4.03
2018-06-08T17:54:59.361Z,3.90
2018-06-08T17:57:26.706Z,3.40
2018-06-08T17:59:54.193Z,3.33
2018-06-08T18:02:21.553Z,4.20
2018-06-08T18:04:48.941Z,4.83
2018-06-08T18:07:16.274Z,4.00
2018-06-08T18:09:43.704Z,5.20
2018-06-08T18:12:11.078Z,4.50
2018-06-08T18:14:38.437Z,3.37
2018-06-08T18:17:05.829Z,5.13
2018-06-08T18:19:33.386Z,3.03
2018-06-08T18:22:00.729Z,3.97
2018-06-08T18:24:28.069Z,3.13
2018-06-08T18:26:55.421Z,3.63
2018-06-08T18:29:22.757Z,4.00
2018-06-08T18:31:50.278Z,4.87
2018-06-08T18:34:17.695Z,4.67
2018-06-08T18:36:45.056Z,3.90
2018-06-08T18:39:12.391Z,3.87
2018-06-08T18:41:39.823Z,4.53
2018-06-08T18:44:07.177Z,4.30
2018-06-08T18:46:34.520Z,8.17
2018-06-08T18:49:01.993Z,4.47
2018-06-08T18:51:29.336Z,3.80
2018-06-08T18:53:57.112Z,4.30
2018-06-08T18:56:24.471Z,5.83
2018-06-08T18:58:51.825Z,4.13
2018-06-08T19:01:19.297Z,5.43
2018-06-08T19:03:46.538Z,4.50
2018-06-08T19:06:14.017Z,5.53
2018-06-08T19:08:41.346Z,4.57
2018-06-08T19:11:08.762Z,4.20
2018-06-08T19:13:36.121Z,5.17
2018-06-08T19:16:03.541Z,7.70
2018-06-08T19:18:30.875Z,6.00
2018-06-08T19:20:58.232Z,7.83
2018-06-08T19:23:25.567Z,5.00
2018-06-08T19:25:52.915Z,5.60
2018-06-08T19:28:20.250Z,6.67
2018-06-08T19:30:47.652Z,6.37
2018-06-08T19:33:14.977Z,6.37
2018-06-08T19:35:42.314Z,6.07
2018-06-08T19:38:09.660Z,5.97
2018-06-08T19:40:37.058Z,8.27
2018-06-08T19:43:04.607Z,5.53
2018-06-08T19:45:31.953Z,4.90
2018-06-08T19:47:59.305Z,5.50
2018-06-08T19:50:26.662Z,5.57
2018-06-08T19:52:54.125Z,6.90
2018-06-08T19:55:21.461Z,4.43
2018-06-08T19:57:48.797Z,5.40
2018-06-08T20:00:16.191Z,5.10
2018-06-08T20:02:43.510Z,4.90
2018-06-08T20:05:10.845Z,5.07
2018-06-08T20:07:38.224Z,6.23
2018-06-08T20:10:05.573Z,5.97
2018-06-08T20:12:32.942Z,6.60
2018-06-08T20:15:00.271Z,5.43
2018-06-08T20:17:27.697Z,5.13
2018-06-08T20:19:55.060Z,5.97
2018-06-08T20:22:22.422Z,4.87
2018-06-08T20:24:49.774Z,4.87
2018-06-08T20:27:17.120Z,7.70
2018-06-08T20:29:44.461Z,5.07
2018-06-08T20:32:11.801Z,7.60
2018-06-08T20:34:39.187Z,4.87
2018-06-08T20:37:06.530Z,5.40
2018-06-08T20:39:33.921Z,5.47
2018-06-08T20:42:01.301Z,4.43
2018-06-08T20:44:28.738Z,4.40
2018-06-08T20:46:56.082Z,4.70
2018-06-08T20:49:23.424Z,4.77
2018-06-08T20:51:50.794Z,4.40
2018-06-08T20:54:18.236Z,7.23
2018-06-08T20:56:55.714Z,5.90
2018-06-08T20:59:23.173Z,4.93
2018-06-08T21:01:50.679Z,4.95
2018-06-08T21:04:18.037Z,4.50
2018-06-08T21:06:45.386Z,5.70
2018-06-08T21:09:12.771Z,7.23
2018-06-08T21:11:40.122Z,5.40
2018-06-08T21:14:07.519Z,5.43
2018-06-08T21:16:34.861Z,4.93
2018-06-08T21:19:02.229Z,4.27
2018-06-08T21:21:29.671Z,5.90
2018-06-08T21:23:57.003Z,4.87
2018-06-08T21:26:24.353Z,4.73
2018-06-08T21:28:51.692Z,6.93
2018-06-08T21:31:19.025Z,4.80
2018-06-08T21:33:46.353Z,4.53
2018-06-08T21:36:13.709Z,6.37
2018-06-08T21:38:41.036Z,4.90
2018-06-08T21:41:08.389Z,8.73
2018-06-08T21:43:35.746Z,8.70
2018-06-08T21:46:03.365Z,6.53
2018-06-08T21:48:30.961Z,6.43
2018-06-08T21:50:58.314Z,5.17
2018-06-08T21:53:25.657Z,5.20
2018-06-08T21:55:53.030Z,4.30
2018-06-08T21:58:20.377Z,7.57
2018-06-08T22:00:47.806Z,4.67
2018-06-08T22:03:15.167Z,5.60
2018-06-08T22:05:42.580Z,4.40
2018-06-08T22:08:09.978Z,6.07
2018-06-08T22:10:37.332Z,7.13
2018-06-08T22:13:04.676Z,4.37
2018-06-08T22:15:32.029Z,5.00
2018-06-08T22:17:59.381Z,6.00
2018-06-08T22:20:26.762Z,4.50
2018-06-08T22:22:54.175Z,5.00
2018-06-08T22:25:21.535Z,5.20
2018-06-08T22:27:48.861Z,5.90
2018-06-08T22:30:16.259Z,5.50
2018-06-08T22:32:43.625Z,5.67
2018-06-08T22:35:10.956Z,6.50
2018-06-08T22:37:38.306Z,4.90
2018-06-08T22:40:05.966Z,6.13
2018-06-08T22:42:33.293Z,5.57
2018-06-08T22:45:00.621Z,5.93
2018-06-08T22:47:27.954Z,6.03
2018-06-08T22:49:55.280Z,6.80
2018-06-08T22:52:22.936Z,6.30
2018-06-08T22:54:50.344Z,6.00
2018-06-08T22:57:17.697Z,6.30
2018-06-08T22:59:45.037Z,7.97
2018-06-08T23:02:12.481Z,6.00
2018-06-08T23:04:39.809Z,6.40
2018-06-08T23:07:07.145Z,7.83
2018-06-08T23:09:34.595Z,7.10
2018-06-08T23:12:01.948Z,6.57
2018-06-08T23:14:29.317Z,6.70
2018-06-08T23:16:56.659Z,8.00
2018-06-08T23:19:23.989Z,8.57
2018-06-08T23:21:51.361Z,8.37
2018-06-08T23:24:18.774Z,9.50
2018-06-08T23:26:46.127Z,6.50
2018-06-08T23:29:13.445Z,8.17
2018-06-08T23:31:40.817Z,8.77
2018-06-08T23:34:08.196Z,8.70
2018-06-08T23:36:35.542Z,8.57
2018-06-08T23:39:04.962Z,9.30
2018-06-08T23:41:32.350Z,8.33
2018-06-08T23:43:59.686Z,7.20
2018-06-08T23:46:27.025Z,6.83
2018-06-08T23:48:54.361Z,7.07
2018-06-08T23:51:21.726Z,7.53
2018-06-08T23:53:49.069Z,8.00
2018-06-08T23:56:16.409Z,8.03
2018-06-08T23:58:43.785Z,8.00
